createdAt,value
2022-09-06T00:00:46.947Z,3.90
2022-09-06T00:03:35.343Z,3.60
2022-09-06T00:06:23.714Z,4.10
2022-09-06T00:09:13.317Z,3.80
2022-09-06T00:12:01.634Z,3.87
2022-09-06T00:14:50.037Z,3.77
2022-09-06T00:17:38.332Z,4.10
2022-09-06T00:20:27.468Z,3.90
2022-09-06T00:23:16.254Z,3.90
2022-09-06T00:26:06.689Z,3.93
2022-09-06T00:28:54.986Z,3.50
2022-09-06T00:31:43.297Z,3.60
2022-09-06T00:34:31.538Z,4.23
2022-09-06T00:37:19.841Z,4.00
2022-09-06T00:40:09.627Z,3.90
2022-09-06T00:42:59.385Z,3.90
2022-09-06T00:45:47.855Z,4.03
2022-09-06T00:48:38.835Z,4.00
2022-09-06T00:51:29.693Z,4.17
2022-09-06T00:54:18.047Z,4.47
2022-09-06T00:57:06.801Z,4.30
2022-09-06T00:59:57.673Z,3.77
2022-09-06T01:02:46.084Z,3.80
2022-09-06T01:05:43.602Z,4.00
2022-09-06T01:08:54.570Z,4.10
2022-09-06T01:11:54.888Z,3.80
2022-09-06T01:14:57.131Z,3.63
2022-09-06T01:17:56.145Z,3.70
2022-09-06T01:20:56.682Z,3.87
2022-09-06T01:24:17.821Z,3.80
2022-09-06T01:27:42.748Z,3.87
2022-09-06T01:30:34.868Z,3.60
2022-09-06T01:33:31.153Z,4.03
2022-09-06T01:36:25.905Z,3.80
2022-09-06T01:39:27.877Z,3.60
2022-09-06T01:42:19.260Z,3.67
2022-09-06T01:45:12.301Z,3.90
2022-09-06T01:48:10.567Z,3.83
2022-09-06T01:51:11.028Z,3.33
2022-09-06T01:54:16.660Z,3.87
2022-09-06T01:57:16.294Z,3.67
2022-09-06T02:00:09.277Z,4.00
2022-09-06T02:03:10.491Z,4.10
2022-09-06T02:06:04.514Z,3.73
2022-09-06T02:08:57.154Z,3.80
2022-09-06T02:11:50.764Z,3.70
2022-09-06T02:14:44.502Z,3.70
2022-09-06T02:17:35.516Z,3.47
2022-09-06T02:20:27.991Z,3.93
2022-09-06T02:23:17.652Z,3.70
2022-09-06T02:26:11.050Z,3.90
2022-09-06T02:28:59.431Z,4.00
2022-09-06T02:31:54.758Z,3.70
2022-09-06T02:34:46.193Z,3.70
2022-09-06T02:37:36.210Z,3.63
2022-09-06T02:40:25.320Z,3.57
2022-09-06T02:43:13.698Z,3.60
2022-09-06T02:46:02.079Z,3.50
2022-09-06T02:48:50.414Z,3.53
2022-09-06T02:51:39.497Z,4.10
2022-09-06T02:54:29.146Z,3.73
2022-09-06T02:57:17.373Z,4.20
2022-09-06T03:00:06.800Z,4.10
2022-09-06T03:02:55.852Z,3.60
2022-09-06T03:05:47.742Z,3.93
2022-09-06T03:08:36.606Z,3.67
2022-09-06T03:11:26.250Z,3.90
2022-09-06T03:14:16.307Z,3.77
2022-09-06T03:17:05.353Z,3.83
2022-09-06T03:19:53.645Z,3.40
2022-09-06T03:22:42.054Z,3.90
2022-09-06T03:25:30.327Z,4.33
2022-09-06T03:28:21.147Z,4.33
2022-09-06T03:31:09.511Z,4.30
2022-09-06T03:33:57.817Z,3.83
2022-09-06T03:36:46.058Z,4.23
2022-09-06T03:39:34.377Z,3.50
2022-09-06T03:42:22.943Z,3.87
2022-09-06T03:45:12.653Z,3.70
2022-09-06T03:48:00.927Z,3.60
2022-09-06T03:50:50.982Z,3.60
2022-09-06T03:53:39.247Z,4.40
2022-09-06T03:56:27.564Z,3.77
2022-09-06T03:59:15.777Z,3.80
2022-09-06T04:02:06.601Z,3.87
2022-09-06T04:04:55.695Z,4.37
2022-09-06T04:07:44.465Z,3.50
2022-09-06T04:10:32.860Z,3.70
2022-09-06T04:13:21.306Z,4.20
2022-09-06T04:16:09.628Z,3.90
2022-09-06T04:19:00.895Z,4.07
2022-09-06T04:21:49.229Z,4.40
2022-09-06T04:24:37.951Z,4.03
2022-09-06T04:27:26.201Z,3.70
2022-09-06T04:30:14.521Z,3.87
2022-09-06T04:33:02.815Z,4.57
2022-09-06T04:35:53.172Z,4.83
2022-09-06T04:38:43.447Z,4.80
2022-09-06T04:41:31.681Z,4.70
2022-09-06T04:44:20.163Z,5.00
2022-09-06T04:47:12.828Z,4.47
2022-09-06T04:50:01.079Z,4.90
2022-09-06T04:52:50.719Z,5.70
2022-09-06T04:55:39.590Z,4.50
2022-09-06T04:58:27.893Z,4.73
2022-09-06T05:01:16.980Z,5.30
2022-09-06T05:04:05.219Z,6.13
2022-09-06T05:07:01.200Z,4.57
2022-09-06T05:09:50.846Z,5.20
2022-09-06T05:12:43.611Z,4.97
2022-09-06T05:15:33.702Z,4.50
2022-09-06T05:18:22.296Z,5.20
2022-09-06T05:21:10.602Z,5.67
2022-09-06T05:23:58.947Z,6.83
2022-09-06T05:26:48.691Z,7.87
2022-09-06T05:29:36.976Z,6.83
2022-09-06T05:32:25.410Z,8.00
2022-09-06T05:35:13.931Z,6.50
2022-09-06T05:38:02.282Z,5.67
2022-09-06T05:40:50.643Z,6.10
2022-09-06T05:43:40.325Z,6.27
2022-09-06T05:46:28.682Z,5.43
2022-09-06T05:49:17.035Z,7.90
2022-09-06T05:52:05.368Z,7.20
2022-09-06T05:54:53.620Z,7.53
2022-09-06T05:57:42.008Z,7.17
2022-09-06T06:00:31.730Z,5.80
2022-09-06T06:03:20.166Z,5.90
2022-09-06T06:06:08.839Z,6.13
2022-09-06T06:08:57.538Z,6.73
2022-09-06T06:11:45.907Z,6.20
2022-09-06T06:14:34.167Z,5.77
2022-09-06T06:17:24.069Z,7.40
2022-09-06T06:20:12.330Z,6.00
2022-09-06T06:23:00.608Z,5.67
2022-09-06T06:25:49.103Z,5.50
2022-09-06T06:28:38.097Z,5.43
2022-09-06T06:31:26.408Z,5.07
2022-09-06T06:34:16.533Z,5.93
2022-09-06T06:37:04.939Z,6.53
2022-09-06T06:39:53.273Z,5.03
2022-09-06T06:42:41.627Z,6.45
2022-09-06T06:45:29.980Z,6.85
2022-09-06T06:48:18.740Z,4.72
2022-09-06T06:51:08.837Z,5.35
2022-09-06T06:53:57.941Z,4.65
2022-09-06T06:56:46.217Z,5.70
2022-09-06T06:59:34.570Z,5.32
2022-09-06T07:02:22.985Z,5.57
2022-09-06T07:08:21.027Z,4.90
2022-09-06T07:11:11.075Z,5.25
2022-09-06T07:13:59.323Z,4.80
2022-09-06T07:16:47.837Z,5.30
2022-09-06T07:22:44.470Z,5.80
2022-09-06T07:25:34.431Z,5.72
2022-09-06T07:28:23.726Z,5.80
2022-09-06T07:34:20.936Z,5.10
2022-09-06T07:37:09.353Z,5.15
2022-09-06T07:39:57.690Z,4.38
2022-09-06T07:42:47.442Z,5.60
2022-09-06T07:45:35.998Z,5.43
2022-09-06T07:48:24.382Z,4.95
2022-09-06T07:51:14.666Z,4.53
2022-09-06T07:54:26.348Z,5.68
2022-09-06T07:57:12.174Z,6.72
2022-09-06T08:00:01.933Z,5.05
2022-09-06T08:03:00.120Z,5.95
2022-09-06T08:08:59.998Z,4.22
2022-09-06T08:11:48.969Z,4.75
2022-09-06T08:14:37.470Z,4.75
2022-09-06T08:17:27.145Z,5.43
2022-09-06T08:20:15.542Z,3.72
2022-09-06T08:23:04.760Z,4.65
2022-09-06T08:25:59.265Z,4.57
2022-09-06T08:28:48.104Z,4.43
2022-09-06T08:31:38.086Z,4.13
2022-09-06T08:34:27.937Z,4.63
2022-09-06T08:37:16.256Z,4.78
2022-09-06T08:40:05.168Z,4.50
2022-09-06T08:42:53.628Z,4.90
2022-09-06T08:45:42.895Z,4.13
2022-09-06T08:48:33.844Z,5.05
2022-09-06T08:51:57.453Z,7.18
2022-09-06T08:54:53.263Z,4.80
2022-09-06T08:58:00.720Z,4.10
2022-09-06T09:00:53.279Z,3.90
2022-09-06T09:03:44.575Z,3.92
2022-09-06T09:06:33.757Z,4.20
2022-09-06T09:09:23.471Z,4.10
2022-09-06T09:12:17.258Z,3.75
2022-09-06T09:15:10.699Z,3.88
2022-09-06T09:17:58.982Z,4.07
2022-09-06T09:20:47.380Z,4.63
2022-09-06T09:23:36.137Z,4.28
2022-09-06T09:26:28.100Z,3.70
2022-09-06T09:29:17.288Z,4.18
2022-09-06T09:32:05.963Z,3.38
2022-09-06T09:34:54.413Z,3.08
2022-09-06T09:37:46.533Z,3.10
2022-09-06T09:40:39.919Z,4.07
2022-09-06T09:43:31.896Z,3.13
2022-09-06T09:46:33.232Z,3.50
2022-09-06T09:49:30.679Z,3.10
2022-09-06T09:52:25.852Z,3.40
2022-09-06T09:55:14.066Z,3.35
2022-09-06T09:58:02.527Z,3.35
2022-09-06T10:01:11.417Z,3.17
2022-09-06T10:07:20.191Z,3.30
2022-09-06T10:10:13.876Z,3.45
2022-09-06T10:13:09.985Z,3.30
2022-09-06T10:16:03.938Z,3.50
2022-09-06T10:18:52.929Z,3.72
2022-09-06T10:21:41.282Z,3.63
2022-09-06T10:24:38.762Z,3.90
2022-09-06T10:27:28.761Z,4.63
2022-09-06T10:30:17.465Z,3.17
2022-09-06T10:33:17.951Z,3.97
2022-09-06T10:36:07.135Z,4.97
2022-09-06T10:39:03.513Z,3.50
2022-09-06T10:42:03.939Z,3.17
2022-09-06T10:45:12.966Z,3.83
2022-09-06T10:48:05.383Z,4.22
2022-09-06T10:50:58.585Z,3.45
2022-09-06T10:53:51.772Z,3.60
2022-09-06T10:56:45.195Z,4.05
2022-09-06T10:59:37.505Z,5.43
2022-09-06T11:02:39.427Z,2.30
2022-09-06T11:05:38.210Z,2.55
2022-09-06T11:08:51.159Z,1.95
2022-09-06T11:11:46.011Z,3.00
2022-09-06T11:14:36.461Z,1.75
2022-09-06T11:17:34.014Z,3.17
2022-09-06T11:20:31.946Z,2.30
2022-09-06T11:23:49.609Z,3.05
2022-09-06T11:26:44.614Z,3.20
2022-09-06T11:29:34.468Z,2.20
2022-09-06T11:32:35.390Z,3.00
2022-09-06T11:35:26.430Z,2.97
2022-09-06T11:38:24.815Z,2.70
2022-09-06T11:41:18.551Z,3.38
2022-09-06T11:44:08.110Z,4.63
2022-09-06T11:47:03.448Z,2.40
2022-09-06T11:49:52.575Z,2.60
2022-09-06T11:53:12.985Z,4.70
2022-09-06T11:56:29.376Z,4.05
2022-09-06T11:59:33.321Z,3.20
2022-09-06T12:02:35.362Z,3.60
2022-09-06T12:05:30.014Z,3.28
2022-09-06T12:08:33.059Z,3.47
2022-09-06T12:11:34.554Z,3.47
2022-09-06T12:14:36.027Z,3.75
2022-09-06T12:17:25.496Z,4.10
2022-09-06T12:20:52.429Z,4.10
2022-09-06T12:23:44.329Z,4.10
2022-09-06T12:26:54.472Z,4.32
2022-09-06T12:29:55.051Z,4.13
2022-09-06T12:32:46.549Z,5.10
2022-09-06T12:38:55.642Z,3.72
2022-09-06T12:41:50.064Z,4.28
2022-09-06T12:44:40.356Z,4.55
2022-09-06T12:47:32.200Z,3.53
2022-09-06T12:50:24.122Z,4.13
2022-09-06T12:53:24.691Z,4.68
2022-09-06T12:56:13.649Z,3.88
2022-09-06T12:59:27.319Z,4.00
2022-09-06T13:02:20.706Z,4.20
2022-09-06T13:05:12.869Z,4.90
2022-09-06T13:08:04.435Z,4.07
2022-09-06T13:10:54.224Z,4.25
2022-09-06T13:13:48.658Z,4.20
2022-09-06T13:16:43.404Z,4.22
2022-09-06T13:19:34.771Z,4.28
2022-09-06T13:22:41.225Z,4.10
2022-09-06T13:25:29.564Z,4.53
2022-09-06T13:28:29.672Z,3.63
2022-09-06T13:31:22.194Z,4.68
2022-09-06T13:34:11.855Z,3.90
2022-09-06T13:37:03.389Z,3.70
2022-09-06T13:39:52.379Z,3.60
2022-09-06T13:42:40.810Z,4.13
2022-09-06T13:45:31.097Z,3.75
2022-09-06T13:48:29.008Z,3.90
2022-09-06T13:51:19.361Z,4.85
2022-09-06T13:54:10.631Z,5.63
2022-09-06T13:56:59.254Z,5.05
2022-09-06T13:59:47.521Z,4.38
2022-09-06T14:02:35.964Z,3.53
2022-09-06T14:05:24.499Z,9.38
2022-09-06T14:08:14.240Z,4.03
2022-09-06T14:11:02.765Z,4.10
2022-09-06T14:13:51.085Z,5.00
2022-09-06T14:16:39.415Z,5.53
2022-09-06T14:19:27.835Z,5.03
2022-09-06T14:22:16.151Z,4.03
2022-09-06T14:25:07.571Z,4.63
2022-09-06T14:27:55.801Z,5.10
2022-09-06T14:30:44.128Z,5.07
2022-09-06T14:33:32.546Z,4.47
2022-09-06T14:36:23.352Z,4.50
2022-09-06T14:39:11.585Z,4.85
2022-09-06T14:42:01.241Z,4.70
2022-09-06T14:44:49.517Z,5.10
2022-09-06T14:47:37.757Z,4.95
2022-09-06T14:50:26.037Z,5.82
2022-09-06T14:53:38.938Z,10.50
2022-09-06T14:56:24.552Z,4.63
2022-09-06T14:59:14.645Z,4.75
2022-09-06T15:02:02.919Z,5.28
2022-09-06T15:04:51.199Z,5.00
2022-09-06T15:07:40.445Z,3.72
2022-09-06T15:10:28.776Z,5.05
2022-09-06T15:13:17.056Z,4.40
2022-09-06T15:16:07.853Z,4.32
2022-09-06T15:18:56.374Z,4.68
2022-09-06T15:21:44.653Z,4.32
2022-09-06T15:24:33.693Z,5.75
2022-09-06T15:27:22.646Z,5.15
2022-09-06T15:30:11.792Z,5.30
2022-09-06T15:33:01.454Z,5.10
2022-09-06T15:35:55.405Z,4.70
2022-09-06T15:38:47.440Z,4.40
2022-09-06T15:41:39.298Z,4.30
2022-09-06T15:44:27.597Z,5.57
2022-09-06T15:47:15.910Z,4.20
2022-09-06T15:50:07.174Z,4.88
2022-09-06T15:52:55.444Z,4.07
2022-09-06T15:55:59.295Z,4.47
2022-09-06T15:58:48.120Z,4.78
2022-09-06T16:01:36.915Z,5.03
2022-09-06T16:04:25.383Z,4.30
2022-09-06T16:07:15.207Z,4.63
2022-09-06T16:10:03.728Z,4.65
2022-09-06T16:12:53.017Z,4.22
2022-09-06T16:15:41.790Z,3.75
2022-09-06T16:18:31.918Z,4.53
2022-09-06T16:21:24.030Z,4.20
2022-09-06T16:24:15.636Z,4.15
2022-09-06T16:27:04.057Z,4.65
2022-09-06T16:29:52.751Z,4.70
2022-09-06T16:32:41.111Z,4.78
2022-09-06T16:35:29.456Z,4.43
2022-09-06T16:38:18.392Z,4.40
2022-09-06T16:41:14.509Z,4.20
2022-09-06T16:44:03.343Z,4.20
2022-09-06T16:46:53.527Z,4.25
2022-09-06T16:49:41.966Z,4.78
2022-09-06T16:52:30.351Z,4.43
2022-09-06T16:55:18.789Z,3.75
2022-09-06T16:58:08.552Z,5.05
2022-09-06T17:00:57.155Z,4.75
2022-09-06T17:03:45.546Z,4.25
2022-09-06T17:06:38.298Z,4.95
2022-09-06T17:09:26.684Z,5.60
2022-09-06T17:12:17.603Z,5.35
2022-09-06T17:15:08.924Z,5.22
2022-09-06T17:17:56.270Z,5.97
2022-09-06T17:20:55.882Z,5.63
2022-09-06T17:23:44.335Z,5.70
2022-09-06T17:26:34.013Z,5.28
2022-09-06T17:29:22.906Z,5.25
2022-09-06T17:32:12.558Z,5.30
2022-09-06T17:35:01.081Z,4.80
2022-09-06T17:37:49.478Z,5.40
2022-09-06T17:40:37.978Z,5.30
2022-09-06T17:43:26.295Z,5.20
2022-09-06T17:46:14.938Z,5.68
2022-09-06T17:49:05.476Z,5.65
2022-09-06T17:51:53.965Z,5.55
2022-09-06T17:54:42.493Z,6.18
2022-09-06T17:57:30.759Z,5.35
2022-09-06T18:00:19.454Z,5.25
2022-09-06T18:03:07.915Z,5.35
2022-09-06T18:06:03.806Z,5.10
2022-09-06T18:08:54.503Z,4.68
2022-09-06T18:11:45.699Z,5.85
2022-09-06T18:14:34.425Z,5.60
2022-09-06T18:17:24.102Z,4.10
2022-09-06T18:20:14.099Z,5.10
2022-09-06T18:23:04.093Z,4.70
2022-09-06T18:25:57.541Z,4.70
2022-09-06T18:28:46.064Z,5.20
2022-09-06T18:31:34.562Z,4.93
2022-09-06T18:34:23.175Z,4.63
2022-09-06T18:37:12.370Z,4.80
2022-09-06T18:40:02.222Z,4.85
2022-09-06T18:42:50.662Z,4.88
2022-09-06T18:45:39.009Z,5.18
2022-09-06T18:48:27.444Z,5.28
2022-09-06T18:51:16.427Z,4.50
2022-09-06T18:54:04.786Z,4.85
2022-09-06T18:56:54.492Z,4.97
2022-09-06T18:59:42.879Z,4.90
2022-09-06T19:02:31.398Z,4.40
2022-09-06T19:05:20.712Z,4.43
2022-09-06T19:08:08.960Z,4.68
2022-09-06T19:11:01.980Z,4.55
2022-09-06T19:13:54.725Z,4.13
2022-09-06T19:16:43.120Z,4.53
2022-09-06T19:19:31.530Z,4.40
2022-09-06T19:22:20.135Z,4.53
2022-09-06T19:25:10.861Z,4.60
2022-09-06T19:27:59.242Z,4.07
2022-09-06T19:30:48.965Z,4.53
2022-09-06T19:33:37.442Z,4.20
2022-09-06T19:36:27.781Z,4.33
2022-09-06T19:39:17.496Z,4.47
2022-09-06T19:42:06.313Z,4.57
2022-09-06T19:44:54.776Z,4.10
2022-09-06T19:47:45.125Z,4.33
2022-09-06T19:50:34.501Z,4.07
2022-09-06T19:53:22.824Z,4.70
2022-09-06T19:56:12.021Z,4.40
2022-09-06T19:59:02.229Z,3.97
2022-09-06T20:01:50.565Z,4.03
2022-09-06T20:04:40.260Z,3.73
2022-09-06T20:07:28.611Z,3.80
2022-09-06T20:10:17.174Z,4.10
2022-09-06T20:13:05.586Z,4.20
2022-09-06T20:15:54.647Z,3.97
2022-09-06T20:18:43.316Z,3.53
2022-09-06T20:21:33.300Z,4.20
2022-09-06T20:24:21.704Z,3.90
2022-09-06T20:27:09.961Z,4.00
2022-09-06T20:29:59.243Z,3.93
2022-09-06T20:32:47.555Z,3.97
2022-09-06T20:35:35.891Z,4.27
2022-09-06T20:38:25.917Z,3.70
2022-09-06T20:41:16.229Z,4.27
2022-09-06T20:44:04.868Z,3.93
2022-09-06T20:46:53.253Z,3.97
2022-09-06T20:49:41.578Z,3.50
2022-09-06T20:52:30.414Z,3.70
2022-09-06T20:55:20.257Z,3.70
2022-09-06T20:58:08.599Z,3.53
2022-09-06T21:00:57.734Z,3.80
2022-09-06T21:03:46.236Z,3.80
2022-09-06T21:06:36.177Z,3.83
2022-09-06T21:09:24.818Z,3.20
2022-09-06T21:12:14.470Z,2.97
2022-09-06T21:15:03.087Z,3.03
2022-09-06T21:17:54.205Z,3.07
2022-09-06T21:20:42.889Z,3.20
2022-09-06T21:23:33.405Z,3.30
2022-09-06T21:26:22.874Z,3.37
2022-09-06T21:29:12.996Z,3.40
2022-09-06T21:32:04.457Z,3.17
2022-09-06T21:34:53.032Z,2.97
2022-09-06T21:37:44.281Z,3.30
2022-09-06T21:40:35.385Z,3.60
2022-09-06T21:43:24.857Z,3.43
2022-09-06T21:46:17.983Z,3.10
2022-09-06T21:49:08.537Z,3.03
2022-09-06T21:51:57.179Z,3.30
2022-09-06T21:54:48.129Z,2.87
2022-09-06T21:57:36.660Z,2.70
2022-09-06T22:00:28.439Z,3.30
2022-09-06T22:03:18.785Z,2.80
2022-09-06T22:06:11.645Z,3.03
2022-09-06T22:09:02.422Z,2.87
2022-09-06T22:11:52.914Z,2.83
2022-09-06T22:14:41.821Z,3.00
2022-09-06T22:17:30.907Z,3.20
2022-09-06T22:20:22.210Z,3.80
2022-09-06T22:23:11.186Z,2.90
2022-09-06T22:26:04.624Z,3.13
2022-09-06T22:28:56.043Z,2.77
2022-09-06T22:31:44.896Z,2.90
2022-09-06T22:34:34.422Z,3.37
2022-09-06T22:37:24.450Z,3.43
2022-09-06T22:40:13.420Z,2.83
2022-09-06T22:43:02.556Z,3.23
2022-09-06T22:45:52.092Z,3.30
2022-09-06T22:48:41.255Z,3.00
2022-09-06T22:51:30.022Z,3.00
2022-09-06T22:54:20.072Z,3.17
2022-09-06T22:57:08.743Z,3.20
2022-09-06T22:59:57.546Z,3.53
2022-09-06T23:02:46.304Z,2.80
2022-09-06T23:05:35.066Z,3.40
2022-09-06T23:08:23.802Z,3.60
2022-09-06T23:11:16.065Z,3.27
2022-09-06T23:14:05.352Z,3.00
2022-09-06T23:16:53.962Z,3.10
2022-09-06T23:19:42.688Z,3.43
2022-09-06T23:22:31.755Z,3.63
2022-09-06T23:25:20.492Z,3.40
2022-09-06T23:28:10.515Z,3.50
2022-09-06T23:30:59.229Z,3.60
2022-09-06T23:33:47.977Z,3.40
2022-09-06T23:36:36.744Z,3.67
2022-09-06T23:39:25.408Z,3.30
2022-09-06T23:42:14.140Z,3.23
2022-09-06T23:45:04.214Z,3.37
2022-09-06T23:47:52.894Z,3.60
2022-09-06T23:50:41.659Z,3.60
2022-09-06T23:53:30.613Z,3.20
2022-09-06T23:56:19.240Z,3.53
2022-09-06T23:59:07.980Z,3.87
